Time;durP1;ratioP1;P1;durP2;ratioP2;P2;SDS_P1;SDS_P2;PMS_P1;PMS_P2;Temp;Humidity;BMP_temperature;BMP_pressure;BME280_temperature;BME280_humidity;BME280_pressure;Samples;Min_cycle;Max_cycle;Signal;HPM_P1;HPM_P2
2021/08/07 00:01:47;;;;;;;11.28;5.50;;;;;;;11.05;78.35;96451.41;1771600;78;25744;-82
2021/08/07 00:04:16;;;;;;;8.50;5.28;;;;;;;11.04;78.34;96447.59;1771368;78;27409;-83
2021/08/07 00:06:43;;;;;;;11.15;4.65;;;;;;;11.02;78.36;96455.92;1740682;81;26184;-83
2021/08/07 00:09:09;;;;;;;7.20;4.55;;;;;;;11.05;78.41;96451.94;1758765;80;25776;-82
2021/08/07 00:11:36;;;;;;;8.48;5.03;;;;;;;11.01;78.41;96453.45;1758886;80;26161;-82
2021/08/07 00:14:03;;;;;;;7.55;4.97;;;;;;;11.04;78.46;96453.81;1758761;80;25768;-82
2021/08/07 00:16:29;;;;;;;9.90;4.87;;;;;;;11.05;78.49;96459.51;1758342;80;27399;-83
2021/08/07 00:18:56;;;;;;;9.55;4.67;;;;;;;11.05;78.55;96459.51;1754962;81;25765;-82
2021/08/07 00:21:23;;;;;;;9.28;4.65;;;;;;;11.06;78.59;96459.80;1742425;80;25821;-82
2021/08/07 00:23:49;;;;;;;9.35;5.22;;;;;;;11.07;78.56;96463.33;1759735;80;26268;-83
2021/08/07 00:26:16;;;;;;;10.15;5.05;;;;;;;11.00;78.55;96460.73;1764829;79;25683;-82
2021/08/07 00:28:43;;;;;;;7.60;4.45;;;;;;;11.02;78.62;96466.73;1741690;80;27347;-82
2021/08/07 00:31:09;;;;;;;8.15;4.90;;;;;;;10.93;78.58;96461.93;1747996;78;25825;-82
2021/08/07 00:33:36;;;;;;;5.65;4.78;;;;;;;10.92;78.85;96465.16;1758639;79;25864;-82
2021/08/07 00:36:02;;;;;;;7.08;4.95;;;;;;;10.95;78.80;96464.69;1750644;79;26058;-81
2021/08/07 00:38:29;;;;;;;6.15;4.03;;;;;;;10.92;78.84;96474.61;1766748;79;25200;-82
2021/08/07 00:40:56;;;;;;;7.15;4.58;;;;;;;10.93;78.85;96472.73;1764865;79;27330;-82
2021/08/07 00:43:23;;;;;;;7.97;4.62;;;;;;;10.87;78.75;96469.08;1745986;80;25805;-82
2021/08/07 00:45:50;;;;;;;10.80;4.70;;;;;;;10.75;78.73;96463.69;1753339;80;25824;-83
2021/08/07 00:48:17;;;;;;;9.18;4.97;;;;;;;10.74;79.01;96470.70;1750689;79;26387;-83
2021/08/07 00:50:48;;;;;;;8.15;5.50;;;;;;;10.78;79.14;96467.80;1752394;80;25768;-82
2021/08/07 00:53:15;;;;;;;11.30;4.85;;;;;;;10.81;79.22;96468.16;1751425;81;27366;-83
2021/08/07 00:55:42;;;;;;;8.78;4.33;;;;;;;10.78;79.07;96463.75;1752087;81;25821;-83
2021/08/07 00:58:08;;;;;;;6.47;4.67;;;;;;;10.69;79.07;96470.04;1748906;81;26378;-82
2021/08/07 01:00:35;;;;;;;7.20;4.47;;;;;;;10.74;79.32;96463.42;1755376;81;26144;-83
2021/08/07 01:03:10;;;;;;;6.75;4.22;;;;;;;10.71;79.20;96469.81;1752886;81;25678;-82
2021/08/07 01:05:56;;;;;;;6.65;4.85;;;;;;;10.73;79.26;96459.08;1754749;81;27357;-83
2021/08/07 01:08:24;;;;;;;6.87;5.20;;;;;;;10.71;79.20;96474.68;1710948;81;25817;-83
2021/08/07 01:11:11;;;;;;;6.37;5.03;;;;;;;10.76;79.32;96472.61;1746075;80;25734;-84
2021/08/07 01:13:49;;;;;;;7.50;5.00;;;;;;;10.76;79.34;96467.20;1751673;80;25702;-84
2021/08/07 01:16:26;;;;;;;8.70;5.05;;;;;;;10.72;79.46;96460.66;1760697;80;25780;-83
2021/08/07 01:18:54;;;;;;;7.28;4.72;;;;;;;10.67;79.63;96464.58;1752229;80;28232;-83
2021/08/07 01:21:32;;;;;;;11.78;4.70;;;;;;;10.68;79.80;96465.70;1751637;80;25872;-82
2021/08/07 01:24:10;;;;;;;7.47;4.70;;;;;;;10.74;79.88;96470.17;1757632;79;26175;-84
2021/08/07 01:26:54;;;;;;;8.80;4.47;;;;;;;10.74;79.87;96480.14;1771898;79;25665;-83
2021/08/07 01:29:21;;;;;;;6.78;5.10;;;;;;;10.74;79.93;96481.49;1771738;79;25745;-84
2021/08/07 01:31:51;;;;;;;8.30;5.08;;;;;;;10.77;80.01;96481.83;1780779;79;28371;-83
2021/08/07 01:34:19;;;;;;;8.80;4.80;;;;;;;10.72;79.96;96480.37;1782784;80;25207;-83
2021/08/07 01:36:48;;;;;;;6.40;4.53;;;;;;;10.68;80.06;96487.28;1780451;79;25708;-83
2021/08/07 01:39:15;;;;;;;11.08;4.90;;;;;;;10.73;80.16;96494.69;1782479;80;26187;-85
2021/08/07 01:41:42;;;;;;;7.25;5.22;;;;;;;10.70;80.17;96481.66;1782049;79;25759;-83
2021/08/07 01:44:09;;;;;;;7.97;4.53;;;;;;;10.68;80.22;96494.03;1782034;80;27334;-82
2021/08/07 01:46:50;;;;;;;9.85;4.45;;;;;;;10.75;80.26;96493.91;1780591;79;26454;-83
2021/08/07 01:49:22;;;;;;;6.78;5.00;;;;;;;10.74;80.08;96489.59;1770059;79;26284;-83
2021/08/07 01:51:59;;;;;;;8.93;5.72;;;;;;;10.72;80.11;96493.05;1756131;80;25754;-83
2021/08/07 01:54:31;;;;;;;6.60;5.10;;;;;;;10.77;80.22;96485.05;1757136;81;25857;-82
2021/08/07 01:57:01;;;;;;;10.95;5.40;;;;;;;10.81;80.21;96490.28;1761657;79;28200;-83
2021/08/07 01:59:28;;;;;;;11.97;4.90;;;;;;;10.84;80.20;96487.13;1749106;79;25698;-83
2021/08/07 02:01:55;;;;;;;7.05;5.47;;;;;;;10.83;80.00;96490.88;1757297;80;25762;-83
2021/08/07 02:04:44;;;;;;;10.68;5.40;;;;;;;10.74;79.97;96486.89;1741403;80;25670;-82
2021/08/07 02:07:12;;;;;;;8.58;5.58;;;;;;;10.78;80.16;96493.45;1758679;81;26459;-83
2021/08/07 02:09:40;;;;;;;10.50;5.15;;;;;;;10.82;80.26;96497.33;1738383;81;27478;-82
2021/08/07 02:12:08;;;;;;;9.38;5.20;;;;;;;10.84;80.24;96496.57;1745365;81;25951;-84
2021/08/07 02:14:39;;;;;;;7.05;5.12;;;;;;;10.88;80.26;96496.38;1746813;81;25865;-83
2021/08/07 02:17:06;;;;;;;8.13;5.33;;;;;;;10.88;80.28;96495.02;1735795;80;25722;-83
2021/08/07 02:19:37;;;;;;;5.72;4.78;;;;;;;10.91;80.31;96483.77;1738252;80;26114;-83
2021/08/07 02:22:05;;;;;;;8.88;5.50;;;;;;;10.95;80.30;96490.34;1738498;81;28284;-83
2021/08/07 02:24:32;;;;;;;9.18;4.87;;;;;;;11.00;80.28;96487.73;1738194;81;25825;-83
2021/08/07 02:27:00;;;;;;;13.50;5.50;;;;;;;11.02;80.25;96492.91;1738322;81;25884;-82
2021/08/07 02:29:29;;;;;;;8.15;4.37;;;;;;;11.00;80.23;96491.79;1738264;81;25803;-83
2021/08/07 02:31:58;;;;;;;8.90;5.25;;;;;;;10.99;80.14;96493.41;1762207;79;26060;-83
2021/08/07 02:34:27;;;;;;;9.40;4.53;;;;;;;10.97;80.21;96492.28;1769831;79;27412;-82
2021/08/07 02:36:56;;;;;;;9.18;4.40;;;;;;;10.90;80.20;96501.55;1769366;79;25712;-83
2021/08/07 02:39:26;;;;;;;7.17;4.47;;;;;;;10.89;80.44;96499.38;1769550;79;25764;-82
2021/08/07 02:41:55;;;;;;;8.35;4.50;;;;;;;10.87;80.52;96501.48;1783125;79;26518;-83
2021/08/07 02:44:23;;;;;;;8.05;4.80;;;;;;;10.88;80.65;96498.25;1769314;79;25915;-82
2021/08/07 02:46:50;;;;;;;6.22;4.67;;;;;;;10.89;80.69;96503.42;1769950;79;27373;-83
2021/08/07 02:49:17;;;;;;;7.05;4.33;;;;;;;10.94;80.75;96500.03;1770489;78;26170;-83
2021/08/07 02:51:44;;;;;;;5.17;4.45;;;;;;;10.91;80.58;96499.96;1769598;79;25759;-84
2021/08/07 02:54:11;;;;;;;5.92;4.70;;;;;;;10.84;80.63;96499.27;1770079;79;25778;-82
2021/08/07 02:56:38;;;;;;;8.05;4.58;;;;;;;10.86;80.86;96505.79;1770156;79;25734;-82
2021/08/07 02:59:05;;;;;;;5.22;4.53;;;;;;;10.91;80.92;96498.61;1770063;79;27455;-83
2021/08/07 03:01:32;;;;;;;6.25;4.33;;;;;;;10.95;80.87;96502.49;1769787;79;25878;-83
2021/08/07 03:15:14;;;;;;;7.33;4.60;;;;;;;10.98;80.74;96504.73;1873183;74;25637;-84
2021/08/07 03:20:37;;;;;;;6.87;4.15;;;;;;;11.03;80.78;96510.23;1866829;76;25651;-85
2021/08/07 03:23:07;;;;;;;7.20;4.45;;;;;;;11.04;80.69;96506.47;1819772;77;25692;-84
2021/08/07 03:25:35;;;;;;;6.75;4.10;;;;;;;11.11;80.71;96515.27;1827180;77;27355;-84
2021/08/07 03:28:03;;;;;;;7.95;3.92;;;;;;;11.14;80.71;96504.52;1813151;77;25694;-84
2021/08/07 03:30:30;;;;;;;9.93;4.08;;;;;;;11.18;80.72;96507.88;1835152;77;25650;-84
2021/08/07 03:32:57;;;;;;;6.20;3.67;;;;;;;11.30;80.72;96505.69;1824577;77;25700;-84
2021/08/07 03:35:23;;;;;;;5.87;3.72;;;;;;;11.34;80.54;96509.56;1758938;80;25914;-84
2021/08/07 03:40:24;;;;;;;6.37;3.77;;;;;;;11.55;80.72;96508.92;1856195;76;26348;-84
2021/08/07 03:42:50;;;;;;;6.47;3.95;;;;;;;11.60;80.58;96511.71;1819657;77;25772;-84
2021/08/07 03:45:17;;;;;;;4.87;3.62;;;;;;;11.66;80.57;96510.77;1826379;77;28167;-82
2021/08/07 03:47:52;;;;;;;7.05;4.22;;;;;;;11.71;80.58;96508.15;1822759;77;25829;-82
2021/08/07 03:50:21;;;;;;;6.78;4.10;;;;;;;11.75;80.60;96512.06;1826273;77;26259;-84
2021/08/07 03:52:48;;;;;;;7.83;4.40;;;;;;;11.85;80.83;96514.95;1829845;77;26601;-84
2021/08/07 03:55:15;;;;;;;8.03;3.83;;;;;;;11.90;80.84;96509.66;1826478;77;26438;-85
2021/08/07 03:57:54;;;;;;;9.05;4.37;;;;;;;11.92;80.88;96510.77;1812035;77;27338;-86
2021/08/07 04:01:41;;;;;;;8.18;4.28;;;;;;;12.03;81.10;96502.31;1838086;76;25662;-84
2021/08/07 04:06:30;;;;;;;5.40;4.30;;;;;;;12.18;81.24;96505.31;1873303;75;25691;-84
2021/08/07 04:08:56;;;;;;;10.65;4.97;;;;;;;12.19;81.16;96505.60;1842376;75;25770;-84
2021/08/07 04:11:23;;;;;;;7.28;5.40;;;;;;;12.22;81.10;96503.20;1815049;76;27345;-84
2021/08/07 04:16:13;;;;;;;6.62;4.62;;;;;;;12.36;81.10;96511.84;1825527;76;26095;-84
2021/08/07 04:18:41;;;;;;;6.20;4.60;;;;;;;12.37;81.15;96512.13;1819264;77;25784;-85
2021/08/07 04:21:10;;;;;;;7.05;4.08;;;;;;;12.41;81.13;96517.89;1800844;77;27369;-85
2021/08/07 04:23:40;;;;;;;6.60;4.55;;;;;;;12.40;81.12;96511.66;1815986;77;26398;-84
2021/08/07 04:28:53;;;;;;;7.42;5.00;;;;;;;12.39;81.40;96519.48;1868419;76;25600;-85
2021/08/07 04:31:20;;;;;;;7.22;4.90;;;;;;;12.34;81.43;96516.67;1826862;77;25703;-85
2021/08/07 04:33:49;;;;;;;10.38;4.50;;;;;;;12.32;81.53;96520.15;1825962;77;27983;-85
2021/08/07 04:36:16;;;;;;;7.53;5.12;;;;;;;12.29;81.66;96519.30;1815956;77;25233;-85
2021/08/07 04:38:45;;;;;;;13.38;6.22;;;;;;;12.30;81.86;96521.48;1840714;77;25661;-84
2021/08/07 04:41:13;;;;;;;5.67;5.03;;;;;;;12.32;82.06;96525.56;1826599;77;25642;-84
2021/08/07 04:45:35;;;;;;;11.90;6.03;;;;;;;12.47;82.34;96529.90;1879574;76;25638;-85
2021/08/07 04:48:07;;;;;;;8.08;5.47;;;;;;;12.51;82.38;96535.12;1827095;77;25847;-85
2021/08/07 04:50:35;;;;;;;9.47;6.10;;;;;;;12.57;82.42;96530.06;1827368;77;28756;-84
2021/08/07 04:53:04;;;;;;;11.25;6.50;;;;;;;12.67;82.50;96533.50;1803560;77;25695;-84
2021/08/07 04:55:30;;;;;;;14.73;8.33;;;;;;;12.76;82.57;96525.78;1813046;77;25600;-84
2021/08/07 04:57:57;;;;;;;11.85;7.55;;;;;;;12.85;82.65;96529.71;1820350;77;25653;-84
2021/08/07 05:00:24;;;;;;;11.28;8.55;;;;;;;12.91;82.74;96534.16;1830356;77;25753;-85
2021/08/07 05:02:51;;;;;;;16.12;10.03;;;;;;;12.99;82.83;96530.48;1827587;77;27504;-85
2021/08/07 05:05:18;;;;;;;12.93;8.48;;;;;;;13.10;83.09;96542.30;1825980;77;26101;-84
2021/08/07 05:07:48;;;;;;;12.37;8.25;;;;;;;13.21;83.08;96538.70;1827348;77;25722;-86
2021/08/07 05:10:15;;;;;;;9.98;7.47;;;;;;;13.32;83.10;96541.84;1827033;77;25788;-85
2021/08/07 05:12:41;;;;;;;13.55;7.53;;;;;;;13.46;83.16;96541.48;1826472;77;25288;-85
2021/08/07 05:15:09;;;;;;;15.23;8.33;;;;;;;13.60;83.20;96540.87;1813074;77;28151;-85
2021/08/07 05:17:36;;;;;;;12.23;7.42;;;;;;;13.72;83.15;96548.89;1834211;77;26303;-85
2021/08/07 05:20:04;;;;;;;8.45;7.30;;;;;;;13.80;83.20;96545.73;1826777;77;25738;-85
2021/08/07 05:22:31;;;;;;;11.43;6.72;;;;;;;13.91;83.16;96545.31;1824165;77;25736;-85
2021/08/07 05:24:57;;;;;;;7.42;5.78;;;;;;;14.02;83.26;96545.71;1840298;77;25737;-86
2021/08/07 05:27:24;;;;;;;8.48;5.60;;;;;;;14.12;83.20;96547.75;1823883;77;27342;-85
2021/08/07 05:29:51;;;;;;;6.75;4.78;;;;;;;14.24;83.21;96551.14;1826508;77;25836;-85
2021/08/07 05:32:17;;;;;;;5.25;4.45;;;;;;;14.36;83.14;96559.42;1826026;77;25723;-86
2021/08/07 05:34:44;;;;;;;6.03;4.80;;;;;;;14.47;82.84;96548.15;1847587;77;25995;-88
2021/08/07 05:37:11;;;;;;;6.28;4.33;;;;;;;14.57;82.73;96555.03;1826768;77;25690;-86
2021/08/07 05:39:37;;;;;;;6.03;3.85;;;;;;;14.68;82.62;96551.33;1823989;77;27318;-85
2021/08/07 05:42:04;;;;;;;7.12;4.20;;;;;;;14.85;82.43;96557.19;1823177;77;25738;-89
2021/08/07 05:44:31;;;;;;;6.10;4.12;;;;;;;15.00;82.35;96551.86;1810757;77;25858;-85
2021/08/07 05:46:57;;;;;;;6.12;4.05;;;;;;;15.12;82.25;96566.09;1824636;77;25725;-86
2021/08/07 05:49:24;;;;;;;4.58;4.00;;;;;;;15.22;82.11;96568.88;1819684;77;25659;-86
2021/08/07 05:51:51;;;;;;;5.20;3.50;;;;;;;15.30;81.84;96564.33;1822445;78;27546;-85
2021/08/07 05:54:20;;;;;;;4.40;4.00;;;;;;;15.38;81.57;96556.21;1823292;77;25727;-85
2021/08/07 05:56:46;;;;;;;5.20;3.55;;;;;;;15.46;81.29;96553.81;1825442;77;25737;-85
2021/08/07 05:59:12;;;;;;;3.70;3.40;;;;;;;15.54;81.42;96543.53;1814714;77;26266;-85
2021/08/07 06:01:39;;;;;;;3.50;3.17;;;;;;;15.63;81.07;96552.86;1823140;78;26211;-85
2021/08/07 06:04:06;;;;;;;5.05;3.27;;;;;;;15.70;80.79;96547.98;1822757;78;28220;-89
2021/08/07 06:06:32;;;;;;;4.92;3.10;;;;;;;15.78;80.69;96550.22;1800379;77;25253;-86
2021/08/07 06:08:59;;;;;;;4.40;3.62;;;;;;;15.84;80.57;96540.98;1821904;77;25719;-85
2021/08/07 06:11:26;;;;;;;3.77;3.05;;;;;;;15.93;80.41;96550.30;1821196;77;25697;-90
2021/08/07 06:13:52;;;;;;;3.87;3.33;;;;;;;16.01;80.26;96549.78;1813684;77;25640;-86
2021/08/07 06:16:19;;;;;;;4.58;3.08;;;;;;;16.11;80.13;96544.91;1818944;77;27295;-82
2021/08/07 06:18:47;;;;;;;4.65;3.58;;;;;;;16.20;80.00;96552.28;1824305;77;25706;-86
2021/08/07 06:21:13;;;;;;;3.80;3.15;;;;;;;16.28;79.63;96551.50;1827387;77;25709;-87
2021/08/07 06:23:40;;;;;;;3.90;3.10;;;;;;;16.33;79.39;96546.88;1825720;77;26127;-87
2021/08/07 06:26:09;;;;;;;4.15;3.30;;;;;;;16.40;79.37;96550.17;1804022;77;25752;-86
2021/08/07 06:28:36;;;;;;;4.85;3.52;;;;;;;16.48;79.21;96556.99;1799015;78;27362;-88
2021/08/07 06:31:02;;;;;;;4.00;3.22;;;;;;;16.54;79.13;96555.93;1792713;78;25814;-85
2021/08/07 06:33:29;;;;;;;5.08;3.25;;;;;;;16.64;79.02;96555.97;1817946;78;26086;-88
2021/08/07 06:35:56;;;;;;;5.03;3.30;;;;;;;16.74;79.10;96561.44;1804788;78;25739;-86
2021/08/07 06:38:22;;;;;;;4.90;3.00;;;;;;;16.84;79.08;96565.53;1823200;77;25774;-87
2021/08/07 06:40:49;;;;;;;4.10;2.87;;;;;;;16.94;78.94;96563.34;1824131;77;27350;-88
2021/08/07 06:43:16;;;;;;;3.52;3.22;;;;;;;17.03;78.63;96556.25;1826904;77;25719;-86
2021/08/07 06:45:42;;;;;;;3.80;2.55;;;;;;;17.12;78.55;96552.45;1814001;77;26643;-84
2021/08/07 06:48:09;;;;;;;3.47;2.90;;;;;;;17.21;78.43;96554.90;1822887;78;25773;-87
2021/08/07 06:50:35;;;;;;;5.97;3.30;;;;;;;17.29;78.17;96558.42;1824118;77;25793;-86
2021/08/07 06:53:02;;;;;;;2.87;2.62;;;;;;;17.38;77.87;96565.53;1810285;77;27270;-91
2021/08/07 06:55:29;;;;;;;4.85;2.98;;;;;;;17.45;77.79;96564.69;1805245;77;25759;-85
2021/08/07 06:57:55;;;;;;;5.92;2.85;;;;;;;17.55;77.74;96555.94;1835440;77;25344;-85
2021/08/07 07:00:22;;;;;;;5.55;2.65;;;;;;;17.63;77.33;96560.85;1820990;77;25285;-85
2021/08/07 07:02:49;;;;;;;3.42;2.77;;;;;;;17.73;77.32;96564.67;1822997;77;25707;-89
2021/08/07 07:05:15;;;;;;;4.25;2.72;;;;;;;17.81;77.02;96562.19;1828212;77;27324;-84
2021/08/07 07:07:42;;;;;;;2.85;2.65;;;;;;;17.90;76.94;96568.70;1835372;76;26103;-86
2021/08/07 07:10:12;;;;;;;5.37;2.70;;;;;;;17.99;76.62;96564.30;1822830;78;25225;-89
2021/08/07 07:12:40;;;;;;;3.70;3.00;;;;;;;18.08;76.32;96565.92;1831357;77;26392;-85
2021/08/07 07:15:09;;;;;;;6.00;2.58;;;;;;;18.18;76.10;96564.50;1825382;77;25876;-85
2021/08/07 07:17:36;;;;;;;3.10;2.52;;;;;;;18.27;76.06;96566.91;1824243;78;27517;-89
2021/08/07 07:20:05;;;;;;;4.67;2.70;;;;;;;18.37;75.89;96566.04;1823820;78;25862;-89
2021/08/07 07:22:32;;;;;;;4.75;2.67;;;;;;;18.48;75.57;96562.16;1824409;78;25688;-86
2021/08/07 07:24:58;;;;;;;3.55;2.37;;;;;;;18.56;75.40;96557.48;1824374;78;25224;-87
2021/08/07 07:27:25;;;;;;;3.92;2.65;;;;;;;18.67;75.32;96563.73;1824493;78;26376;-87
2021/08/07 07:29:52;;;;;;;2.85;2.22;;;;;;;18.79;75.18;96553.27;1824384;77;27495;-89
2021/08/07 07:32:18;;;;;;;2.37;2.05;;;;;;;18.90;74.74;96560.29;1824198;78;25750;-93
2021/08/07 07:34:45;;;;;;;2.22;2.00;;;;;;;18.98;74.40;96563.77;1824385;78;25762;-88
2021/08/07 07:37:12;;;;;;;4.45;2.55;;;;;;;19.10;74.30;96558.48;1824254;78;25640;-82
2021/08/07 07:39:38;;;;;;;4.60;2.22;;;;;;;19.24;73.98;96569.04;1813999;77;26013;-85
2021/08/07 07:42:08;;;;;;;3.67;2.35;;;;;;;19.41;73.73;96559.87;1822593;77;28173;-90
2021/08/07 07:44:35;;;;;;;2.50;2.30;;;;;;;19.66;73.63;96565.69;1819014;78;25642;-87
2021/08/07 07:47:02;;;;;;;5.70;2.33;;;;;;;19.96;73.34;96556.30;1799146;78;25839;-85
2021/08/07 07:49:28;;;;;;;3.12;1.75;;;;;;;20.34;72.60;96563.51;1799644;78;26351;-85
2021/08/07 07:51:55;;;;;;;3.75;1.60;;;;;;;20.74;71.83;96559.98;1793044;78;25789;-87
2021/08/07 07:54:21;;;;;;;1.82;1.67;;;;;;;21.14;71.46;96555.22;1799065;78;27409;-92
2021/08/07 07:56:48;;;;;;;4.72;1.50;;;;;;;21.53;70.73;96560.92;1798623;79;25801;-90
2021/08/07 07:59:15;;;;;;;2.10;1.82;;;;;;;21.90;70.37;96559.96;1768029;79;25761;-87
2021/08/07 08:01:41;;;;;;;1.98;1.80;;;;;;;22.14;69.52;96568.86;1795869;79;26275;-86
2021/08/07 08:04:08;;;;;;;4.58;1.60;;;;;;;22.39;69.04;96560.66;1796604;79;25633;-91
2021/08/07 08:06:34;;;;;;;3.22;1.75;;;;;;;22.71;68.21;96567.11;1798225;78;28028;-90
2021/08/07 08:09:01;;;;;;;1.72;1.60;;;;;;;23.02;67.60;96565.89;1786116;78;25980;-86
2021/08/07 08:11:28;;;;;;;2.05;1.50;;;;;;;23.33;67.35;96564.02;1790224;79;25645;-85
2021/08/07 08:13:55;;;;;;;2.02;1.80;;;;;;;23.60;66.34;96567.23;1778950;78;25870;-88
2021/08/07 08:16:21;;;;;;;2.67;1.30;;;;;;;23.79;65.65;96567.81;1795198;78;25739;-85
2021/08/07 08:18:48;;;;;;;2.00;1.40;;;;;;;23.95;64.75;96567.66;1797586;78;27360;-88
2021/08/07 08:21:15;;;;;;;1.75;1.32;;;;;;;24.18;64.20;96573.91;1797230;78;25942;-89
2021/08/07 08:23:41;;;;;;;1.62;1.50;;;;;;;24.38;63.75;96575.33;1777088;78;25794;-94
2021/08/07 08:26:08;;;;;;;1.82;1.70;;;;;;;24.57;62.95;96566.20;1796474;78;25766;-83
2021/08/07 08:28:34;;;;;;;2.77;1.57;;;;;;;24.82;62.89;96563.81;1793117;78;26393;-85
2021/08/07 08:31:01;;;;;;;2.10;1.80;;;;;;;25.11;62.08;96563.47;1778247;78;27331;-92
2021/08/07 08:33:28;;;;;;;1.55;1.45;;;;;;;25.42;61.60;96560.51;1789386;78;25725;-84
2021/08/07 08:35:54;;;;;;;4.17;1.80;;;;;;;25.68;61.10;96565.21;1796670;78;25758;-90
2021/08/07 08:38:21;;;;;;;3.10;1.55;;;;;;;25.52;60.41;96561.30;1732271;81;25279;-87
2021/08/07 08:40:48;;;;;;;2.12;1.62;;;;;;;25.22;60.03;96568.09;1752778;81;25716;-92
2021/08/07 08:43:16;;;;;;;3.30;1.57;;;;;;;24.93;60.06;96577.57;1752236;81;27412;-84
2021/08/07 08:45:46;;;;;;;2.10;1.85;;;;;;;24.54;59.56;96573.73;1745223;80;25959;-88
2021/08/07 08:48:13;;;;;;;2.85;1.47;;;;;;;24.33;59.53;96575.47;1760784;79;25728;-94
2021/08/07 08:50:40;;;;;;;1.55;1.20;;;;;;;24.15;59.62;96586.17;1757260;80;26262;-89
2021/08/07 08:53:07;;;;;;;1.45;1.35;;;;;;;23.94;59.56;96585.33;1758953;80;25760;-90
2021/08/07 08:55:34;;;;;;;1.40;1.30;;;;;;;23.81;59.65;96584.03;1758777;80;27361;-89
2021/08/07 08:58:01;;;;;;;1.40;1.17;;;;;;;23.74;59.56;96583.12;1734099;80;25726;-85
2021/08/07 09:00:28;;;;;;;1.50;1.40;;;;;;;23.62;59.53;96578.19;1742990;81;25899;-91
2021/08/07 09:02:55;;;;;;;4.85;1.35;;;;;;;23.54;59.27;96575.39;1746574;80;25458;-86
2021/08/07 09:05:21;;;;;;;1.95;1.45;;;;;;;23.50;59.36;96586.22;1731983;80;25253;-88
2021/08/07 09:07:48;;;;;;;1.50;1.40;;;;;;;23.44;59.25;96579.16;1745440;80;28122;-86
2021/08/07 09:10:16;;;;;;;1.95;1.35;;;;;;;23.35;59.08;96584.61;1760728;80;25738;-84
2021/08/07 09:12:48;;;;;;;2.62;1.45;;;;;;;23.30;58.93;96585.32;1747285;81;25751;-87
2021/08/07 09:15:40;;;;;;;1.98;1.62;;;;;;;23.26;58.84;96582.93;1755700;80;34783;-83
2021/08/07 09:18:20;;;;;;;3.58;1.62;;;;;;;23.14;58.78;96588.99;1738793;81;25673;-83
2021/08/07 09:20:53;;;;;;;1.50;1.40;;;;;;;23.28;59.01;96582.88;1756624;80;27343;-86
2021/08/07 09:23:33;;;;;;;1.60;1.50;;;;;;;23.34;58.93;96588.49;1757494;80;26203;-90
2021/08/07 09:26:13;;;;;;;2.22;1.82;;;;;;;23.38;58.45;96575.48;1781497;79;25730;-87
2021/08/07 09:28:51;;;;;;;1.77;1.40;;;;;;;23.30;58.70;96577.88;1777449;79;25677;-85
2021/08/07 09:31:18;;;;;;;2.33;1.42;;;;;;;23.41;58.59;96585.87;1790118;80;26315;-82
2021/08/07 09:33:45;;;;;;;1.87;1.40;;;;;;;23.62;58.19;96584.27;1790357;79;27364;-86
2021/08/07 09:36:12;;;;;;;3.90;1.10;;;;;;;23.66;57.79;96592.16;1789980;80;25808;-86
2021/08/07 09:38:47;;;;;;;1.65;1.25;;;;;;;23.58;57.23;96586.01;1790177;80;25846;-83
2021/08/07 09:41:14;;;;;;;3.55;1.30;;;;;;;23.55;57.29;96580.56;1785996;78;25740;-84
2021/08/07 09:43:50;;;;;;;3.58;1.45;;;;;;;23.54;57.86;96590.55;1790144;80;25804;-84
2021/08/07 09:46:24;;;;;;;2.75;1.77;;;;;;;23.57;57.92;96588.52;1787336;79;27358;-84
2021/08/07 09:48:54;;;;;;;3.65;1.50;;;;;;;23.79;58.23;96585.72;1772543;78;26435;-84
2021/08/07 09:51:33;;;;;;;1.45;1.30;;;;;;;24.15;58.06;96593.06;1785606;78;25807;-84
2021/08/07 09:54:18;;;;;;;2.17;1.20;;;;;;;24.20;57.70;96588.77;1792825;78;25822;-83
2021/08/07 09:56:49;;;;;;;1.40;1.20;;;;;;;24.29;57.47;96586.87;1793287;79;25479;-84
2021/08/07 09:59:19;;;;;;;3.05;1.32;;;;;;;24.23;57.24;96593.69;1790255;78;27522;-83
2021/08/07 10:01:48;;;;;;;1.40;1.30;;;;;;;24.17;56.87;96599.05;1789885;78;25708;-84
2021/08/07 10:04:17;;;;;;;1.87;1.52;;;;;;;24.19;57.35;96594.03;1789763;79;25222;-85
2021/08/07 10:06:45;;;;;;;1.57;1.47;;;;;;;24.52;57.68;96595.31;1790955;78;26139;-84
2021/08/07 10:09:13;;;;;;;1.20;1.10;;;;;;;24.95;57.54;96587.73;1785748;78;25680;-84
2021/08/07 10:11:44;;;;;;;1.65;1.20;;;;;;;25.31;57.27;96591.55;1789393;78;27328;-86
2021/08/07 10:14:11;;;;;;;3.15;1.20;;;;;;;25.62;56.09;96593.58;1787368;78;25846;-85
2021/08/07 10:16:39;;;;;;;1.70;1.37;;;;;;;25.81;55.80;96583.55;1789821;78;25928;-88
2021/08/07 10:19:08;;;;;;;1.85;1.50;;;;;;;26.00;55.60;96588.69;1785460;78;25752;-84
2021/08/07 10:21:35;;;;;;;2.27;1.22;;;;;;;25.98;53.75;96589.02;1791408;78;25700;-84
2021/08/07 10:24:02;;;;;;;1.55;1.05;;;;;;;25.82;53.50;96589.33;1790984;78;28186;-84
2021/08/07 10:26:31;;;;;;;1.15;1.05;;;;;;;25.79;53.87;96585.83;1786235;78;25931;-87
2021/08/07 10:28:59;;;;;;;1.07;1.00;;;;;;;25.80;54.07;96594.37;1786054;78;25968;-84
2021/08/07 10:31:29;;;;;;;1.10;1.00;;;;;;;26.04;53.58;96590.48;1790878;78;26127;-85
2021/08/07 10:34:00;;;;;;;1.47;1.10;;;;;;;26.20;53.44;96590.16;1791937;78;25685;-87
2021/08/07 10:36:27;;;;;;;2.55;1.10;;;;;;;26.41;53.64;96593.62;1791908;78;27328;-87
2021/08/07 10:38:54;;;;;;;2.60;1.17;;;;;;;26.45;53.47;96589.02;1791913;78;26381;-86
2021/08/07 10:41:27;;;;;;;1.82;1.05;;;;;;;26.32;53.43;96596.44;1792986;78;25271;-86
2021/08/07 10:43:56;;;;;;;2.47;1.20;;;;;;;26.13;53.03;96589.06;1765227;79;26139;-85
2021/08/07 10:46:23;;;;;;;3.85;1.32;;;;;;;26.01;53.04;96586.98;1788664;78;25356;-87
2021/08/07 10:48:52;;;;;;;2.58;0.98;;;;;;;25.87;53.46;96589.70;1787548;78;27401;-89
2021/08/07 10:51:24;;;;;;;2.37;1.60;;;;;;;25.81;52.98;96584.94;1788785;78;25736;-86
2021/08/07 10:54:05;;;;;;;1.32;1.17;;;;;;;25.76;53.14;96585.91;1786608;78;26529;-86
2021/08/07 10:56:36;;;;;;;4.30;1.65;;;;;;;25.66;53.45;96579.92;1779454;79;25802;-87
2021/08/07 10:59:17;;;;;;;1.95;1.50;;;;;;;25.56;53.01;96573.33;1773945;78;25764;-86
2021/08/07 11:01:47;;;;;;;7.00;1.65;;;;;;;25.44;52.80;96572.05;1789237;78;27417;-85
2021/08/07 11:04:27;;;;;;;1.45;1.35;;;;;;;25.54;53.22;96572.27;1789470;80;25823;-87
2021/08/07 11:07:01;;;;;;;1.77;1.50;;;;;;;25.55;52.68;96568.94;1789054;78;25743;-88
2021/08/07 11:09:41;;;;;;;2.12;1.47;;;;;;;25.61;52.36;96573.17;1783159;78;25808;-84
2021/08/07 11:12:16;;;;;;;1.67;1.57;;;;;;;25.74;52.83;96571.61;1787813;79;25781;-88
2021/08/07 11:14:53;;;;;;;1.82;1.40;;;;;;;25.86;52.88;96570.92;1776997;78;27354;-86
2021/08/07 11:17:24;;;;;;;3.42;1.42;;;;;;;25.86;52.35;96575.06;1772805;78;25780;-89
2021/08/07 11:20:05;;;;;;;2.15;1.90;;;;;;;25.86;52.08;96569.54;1785266;78;26343;-84
2021/08/07 11:22:38;;;;;;;2.92;1.25;;;;;;;25.92;51.97;96578.48;1766221;80;25799;-85
2021/08/07 11:25:21;;;;;;;1.80;1.37;;;;;;;26.07;50.99;96577.38;1784264;79;25733;-85
2021/08/07 11:27:55;;;;;;;2.40;1.42;;;;;;;26.13;50.71;96574.66;1781670;78;27366;-85
2021/08/07 11:30:25;;;;;;;2.12;1.42;;;;;;;26.15;50.97;96569.61;1777302;79;26008;-85
2021/08/07 11:33:09;;;;;;;1.47;1.30;;;;;;;26.08;50.13;96569.30;1788480;78;25681;-85
2021/08/07 11:35:45;;;;;;;1.77;1.55;;;;;;;26.14;49.24;96572.70;1787565;78;25717;-86
2021/08/07 11:38:25;;;;;;;2.27;1.37;;;;;;;26.13;49.85;96577.42;1778091;78;25773;-85
2021/08/07 11:41:02;;;;;;;3.05;1.40;;;;;;;26.07;49.34;96571.85;1787148;78;27381;-87
2021/08/07 11:43:41;;;;;;;2.83;1.30;;;;;;;25.94;49.91;96575.63;1787195;78;25741;-83
2021/08/07 11:46:14;;;;;;;1.77;1.20;;;;;;;25.83;49.14;96564.70;1768672;79;26489;-83
2021/08/07 11:48:49;;;;;;;2.77;1.52;;;;;;;25.77;49.51;96578.44;1791361;78;26292;-84
2021/08/07 11:51:25;;;;;;;10.78;2.35;;;;;;;25.72;49.60;96572.50;1792275;78;25681;-83
2021/08/07 11:53:52;;;;;;;3.42;2.00;;;;;;;25.73;49.69;96570.55;1790850;79;28264;-84
2021/08/07 11:56:23;;;;;;;1.92;1.55;;;;;;;25.80;50.05;96568.92;1791977;78;25804;-84
2021/08/07 11:58:56;;;;;;;1.72;1.45;;;;;;;25.81;49.64;96569.73;1791881;79;25802;-85
2021/08/07 12:01:33;;;;;;;1.40;1.25;;;;;;;25.74;49.50;96566.64;1790955;78;25805;-85
2021/08/07 12:04:00;;;;;;;2.37;1.40;;;;;;;25.63;49.21;96566.75;1791914;78;25661;-87
2021/08/07 12:06:37;;;;;;;1.32;1.20;;;;;;;25.56;48.92;96565.05;1786327;78;27359;-86
2021/08/07 12:09:13;;;;;;;1.57;1.47;;;;;;;25.55;49.30;96566.99;1789972;78;25894;-85